sensor_id;sensor_type;location;lat;lon;timestamp;pressure;altitude;pressure_sealevel;temperature;humidity
64711;BME280;51139;45.626;6.850;2023-07-20T00:00:00;82296.34;;;18.88;41.79
64711;BME280;51139;45.626;6.850;2023-07-20T00:02:26;82297.44;;;18.96;41.47
64711;BME280;51139;45.626;6.850;2023-07-20T00:04:51;82294.88;;;19.13;41.44
64711;BME280;51139;45.626;6.850;2023-07-20T00:07:16;82291.34;;;18.82;41.29
64711;BME280;51139;45.626;6.850;2023-07-20T00:09:42;82287.34;;;19.23;40.50
64711;BME280;51139;45.626;6.850;2023-07-20T00:12:07;82285.44;;;19.39;40.95
64711;BME280;51139;45.626;6.850;2023-07-20T00:14:33;82292.53;;;18.79;43.20
64711;BME280;51139;45.626;6.850;2023-07-20T00:16:58;82287.94;;;19.21;43.08
64711;BME280;51139;45.626;6.850;2023-07-20T00:19:25;82295.94;;;18.93;44.17
64711;BME280;51139;45.626;6.850;2023-07-20T00:21:50;82288.13;;;19.12;43.70
64711;BME280;51139;45.626;6.850;2023-07-20T00:24:16;82285.44;;;18.98;44.04
64711;BME280;51139;45.626;6.850;2023-07-20T00:26:41;82288.44;;;19.04;44.33
64711;BME280;51139;45.626;6.850;2023-07-20T00:29:07;82283.56;;;19.14;43.41
64711;BME280;51139;45.626;6.850;2023-07-20T00:31:32;82291.06;;;18.90;43.72
64711;BME280;51139;45.626;6.850;2023-07-20T00:34:00;82300.53;;;18.51;44.90
64711;BME280;51139;45.626;6.850;2023-07-20T00:36:25;82288.63;;;19.08;43.50
64711;BME280;51139;45.626;6.850;2023-07-20T00:38:50;82288.13;;;19.12;43.65
64711;BME280;51139;45.626;6.850;2023-07-20T00:41:16;82291.13;;;19.04;43.87
64711;BME280;51139;45.626;6.850;2023-07-20T00:43:41;82283.56;;;19.00;42.72
64711;BME280;51139;45.626;6.850;2023-07-20T00:46:07;82280.38;;;19.18;41.64
64711;BME280;51139;45.626;6.850;2023-07-20T00:48:34;82282.38;;;19.03;40.50
64711;BME280;51139;45.626;6.850;2023-07-20T00:51:00;82273.72;;;19.19;39.98
64711;BME280;51139;45.626;6.850;2023-07-20T00:53:26;82277.03;;;18.63;41.00
64711;BME280;51139;45.626;6.850;2023-07-20T00:55:52;82282.22;;;18.07;41.89
64711;BME280;51139;45.626;6.850;2023-07-20T00:58:17;82274.41;;;19.05;40.28
64711;BME280;51139;45.626;6.850;2023-07-20T01:00:43;82276.72;;;19.11;40.13
64711;BME280;51139;45.626;6.850;2023-07-20T01:03:08;82274.13;;;19.13;41.56
64711;BME280;51139;45.626;6.850;2023-07-20T01:08:55;82256.53;;;19.82;39.65
64711;BME280;51139;45.626;6.850;2023-07-20T01:11:33;82267.84;;;19.36;41.33
64711;BME280;51139;45.626;6.850;2023-07-20T01:14:01;82263.72;;;18.26;43.52
64711;BME280;51139;45.626;6.850;2023-07-20T01:16:27;82263.63;;;18.77;42.62
64711;BME280;51139;45.626;6.850;2023-07-20T01:18:53;82268.47;;;19.07;41.34
64711;BME280;51139;45.626;6.850;2023-07-20T01:21:24;82270.53;;;18.55;43.03
64711;BME280;51139;45.626;6.850;2023-07-20T01:24:09;82258.91;;;17.84;45.63
64711;BME280;51139;45.626;6.850;2023-07-20T01:32:42;82265.31;;;18.57;43.27
64711;BME280;51139;45.626;6.850;2023-07-20T01:35:09;82262.78;;;17.69;44.26
64711;BME280;51139;45.626;6.850;2023-07-20T01:37:43;82266.84;;;18.08;43.47
64711;BME280;51139;45.626;6.850;2023-07-20T01:40:10;82266.72;;;17.80;43.77
64711;BME280;51139;45.626;6.850;2023-07-20T01:42:36;82265.25;;;18.43;42.71
64711;BME280;51139;45.626;6.850;2023-07-20T01:45:02;82260.81;;;18.61;42.47
64711;BME280;51139;45.626;6.850;2023-07-20T01:47:27;82253.19;;;18.56;42.53
64711;BME280;51139;45.626;6.850;2023-07-20T01:49:53;82255.25;;;18.17;43.17
64711;BME280;51139;45.626;6.850;2023-07-20T01:52:18;82260.56;;;18.03;43.16
64711;BME280;51139;45.626;6.850;2023-07-20T01:54:43;82254.59;;;18.31;43.63
64711;BME280;51139;45.626;6.850;2023-07-20T01:57:09;82251.59;;;18.92;43.01
64711;BME280;51139;45.626;6.850;2023-07-20T01:59:34;82256.38;;;18.80;42.18
64711;BME280;51139;45.626;6.850;2023-07-20T02:01:59;82250.53;;;18.84;41.53
64711;BME280;51139;45.626;6.850;2023-07-20T02:04:25;82249.31;;;18.73;40.88
64711;BME280;51139;45.626;6.850;2023-07-20T02:06:50;82247.09;;;19.09;41.05
64711;BME280;51139;45.626;6.850;2023-07-20T02:09:15;82247.78;;;19.23;40.70
64711;BME280;51139;45.626;6.850;2023-07-20T02:11:41;82243.28;;;19.42;40.54
64711;BME280;51139;45.626;6.850;2023-07-20T02:14:06;82242.56;;;19.42;40.94
64711;BME280;51139;45.626;6.850;2023-07-20T02:16:31;82243.31;;;19.72;40.19
64711;BME280;51139;45.626;6.850;2023-07-20T02:18:57;82243.00;;;19.94;39.98
64711;BME280;51139;45.626;6.850;2023-07-20T02:21:23;82250.25;;;19.77;40.36
64711;BME280;51139;45.626;6.850;2023-07-20T02:23:48;82248.31;;;20.08;39.57
64711;BME280;51139;45.626;6.850;2023-07-20T02:26:14;82246.84;;;20.35;39.18
64711;BME280;51139;45.626;6.850;2023-07-20T02:28:40;82243.84;;;20.29;38.73
64711;BME280;51139;45.626;6.850;2023-07-20T02:31:06;82241.88;;;19.99;39.83
64711;BME280;51139;45.626;6.850;2023-07-20T02:33:31;82241.28;;;19.87;40.92
64711;BME280;51139;45.626;6.850;2023-07-20T02:35:57;82238.09;;;20.20;40.06
64711;BME280;51139;45.626;6.850;2023-07-20T02:38:22;82245.19;;;20.44;39.60
64711;BME280;51139;45.626;6.850;2023-07-20T02:40:47;82241.13;;;19.68;40.53
64711;BME280;51139;45.626;6.850;2023-07-20T02:43:13;82243.78;;;19.82;40.21
64711;BME280;51139;45.626;6.850;2023-07-20T02:45:41;82240.25;;;19.64;40.27
64711;BME280;51139;45.626;6.850;2023-07-20T02:48:08;82240.13;;;19.04;41.01
64711;BME280;51139;45.626;6.850;2023-07-20T02:50:33;82243.09;;;19.38;40.62
64711;BME280;51139;45.626;6.850;2023-07-20T02:52:59;82244.56;;;19.41;40.02
64711;BME280;51139;45.626;6.850;2023-07-20T02:55:25;82244.94;;;19.49;40.19
64711;BME280;51139;45.626;6.850;2023-07-20T02:57:50;82246.56;;;19.13;41.03
64711;BME280;51139;45.626;6.850;2023-07-20T03:00:16;82244.28;;;19.21;40.77
64711;BME280;51139;45.626;6.850;2023-07-20T03:02:41;82251.25;;;19.26;40.97
64711;BME280;51139;45.626;6.850;2023-07-20T03:05:07;82256.31;;;19.20;40.82
64711;BME280;51139;45.626;6.850;2023-07-20T03:07:32;82257.09;;;18.80;41.48
64711;BME280;51139;45.626;6.850;2023-07-20T03:09:58;82249.31;;;18.59;41.79
64711;BME280;51139;45.626;6.850;2023-07-20T03:12:23;82248.56;;;18.44;42.31
64711;BME280;51139;45.626;6.850;2023-07-20T03:14:49;82246.66;;;18.87;41.68
64711;BME280;51139;45.626;6.850;2023-07-20T03:17:15;82251.72;;;18.94;40.75
64711;BME280;51139;45.626;6.850;2023-07-20T03:19:40;82247.56;;;19.05;40.49
64711;BME280;51139;45.626;6.850;2023-07-20T03:22:06;82258.31;;;18.51;40.90
64711;BME280;51139;45.626;6.850;2023-07-20T03:24:32;82253.69;;;18.66;40.88
64711;BME280;51139;45.626;6.850;2023-07-20T03:26:58;82238.13;;;19.18;39.71
64711;BME280;51139;45.626;6.850;2023-07-20T03:29:23;82241.09;;;19.24;40.09
64711;BME280;51139;45.626;6.850;2023-07-20T03:31:48;82251.59;;;18.25;42.14
64711;BME280;51139;45.626;6.850;2023-07-20T03:34:14;82255.53;;;18.09;42.62
64711;BME280;51139;45.626;6.850;2023-07-20T03:36:39;82245.50;;;19.04;40.63
64711;BME280;51139;45.626;6.850;2023-07-20T03:39:05;82247.00;;;19.07;40.02
64711;BME280;51139;45.626;6.850;2023-07-20T03:41:30;82244.66;;;17.68;41.26
64711;BME280;51139;45.626;6.850;2023-07-20T03:43:55;82246.91;;;16.98;41.93
64711;BME280;51139;45.626;6.850;2023-07-20T03:46:21;82245.53;;;16.85;41.98
64711;BME280;51139;45.626;6.850;2023-07-20T03:48:46;82244.81;;;17.08;41.79
64711;BME280;51139;45.626;6.850;2023-07-20T03:51:11;82241.06;;;18.15;39.56
64711;BME280;51139;45.626;6.850;2023-07-20T03:53:37;82238.84;;;18.51;40.42
64711;BME280;51139;45.626;6.850;2023-07-20T03:56:02;82236.28;;;18.53;41.97
64711;BME280;51139;45.626;6.850;2023-07-20T03:58:28;82234.41;;;17.64;42.72
64711;BME280;51139;45.626;6.850;2023-07-20T04:00:54;82237.81;;;17.15;44.73
64711;BME280;51139;45.626;6.850;2023-07-20T04:03:20;82233.34;;;16.46;45.51
64711;BME280;51139;45.626;6.850;2023-07-20T04:05:46;82237.41;;;16.47;44.07
64711;BME280;51139;45.626;6.850;2023-07-20T04:08:11;82231.69;;;16.53;42.97
64711;BME280;51139;45.626;6.850;2023-07-20T04:10:37;82229.59;;;16.39;43.31
64711;BME280;51139;45.626;6.850;2023-07-20T04:13:04;82233.78;;;16.30;43.36
64711;BME280;51139;45.626;6.850;2023-07-20T04:15:29;82228.44;;;16.18;44.83
64711;BME280;51139;45.626;6.850;2023-07-20T04:17:55;82227.38;;;16.12;45.42
64711;BME280;51139;45.626;6.850;2023-07-20T04:20:22;82229.81;;;15.96;46.86
64711;BME280;51139;45.626;6.850;2023-07-20T04:22:47;82228.19;;;16.02;46.54
64711;BME280;51139;45.626;6.850;2023-07-20T04:25:13;82234.69;;;15.99;46.88
64711;BME280;51139;45.626;6.850;2023-07-20T04:27:38;82228.38;;;15.83;47.96
64711;BME280;51139;45.626;6.850;2023-07-20T04:30:04;82225.91;;;15.75;47.84
64711;BME280;51139;45.626;6.850;2023-07-20T04:32:31;82228.22;;;16.14;48.88
64711;BME280;51139;45.626;6.850;2023-07-20T04:34:59;82239.47;;;16.01;51.58
64711;BME280;51139;45.626;6.850;2023-07-20T04:37:24;82246.06;;;15.54;53.53
64711;BME280;51139;45.626;6.850;2023-07-20T04:39:50;82241.31;;;15.53;57.01
64711;BME280;51139;45.626;6.850;2023-07-20T04:42:15;82243.63;;;15.58;56.66
64711;BME280;51139;45.626;6.850;2023-07-20T04:44:41;82244.69;;;15.65;57.88
64711;BME280;51139;45.626;6.850;2023-07-20T04:47:06;82250.16;;;16.84;52.77
64711;BME280;51139;45.626;6.850;2023-07-20T04:49:32;82238.31;;;16.52;54.10
64711;BME280;51139;45.626;6.850;2023-07-20T04:51:57;82241.53;;;15.57;58.01
64711;BME280;51139;45.626;6.850;2023-07-20T04:54:22;82232.91;;;15.13;60.28
64711;BME280;51139;45.626;6.850;2023-07-20T04:56:48;82229.00;;;15.26;60.50
64711;BME280;51139;45.626;6.850;2023-07-20T04:59:13;82234.00;;;15.99;57.17
64711;BME280;51139;45.626;6.850;2023-07-20T05:01:38;82230.50;;;15.51;57.50
64711;BME280;51139;45.626;6.850;2023-07-20T05:04:04;82225.59;;;15.47;59.14
64711;BME280;51139;45.626;6.850;2023-07-20T05:06:29;82226.56;;;15.97;57.42
64711;BME280;51139;45.626;6.850;2023-07-20T05:08:55;82221.69;;;15.60;58.54
64711;BME280;51139;45.626;6.850;2023-07-20T05:11:20;82226.69;;;16.23;55.66
64711;BME280;51139;45.626;6.850;2023-07-20T05:13:45;82223.34;;;15.65;58.21
64711;BME280;51139;45.626;6.850;2023-07-20T05:16:11;82227.03;;;16.05;56.93
64711;BME280;51139;45.626;6.850;2023-07-20T05:18:36;82220.41;;;16.07;56.01
64711;BME280;51139;45.626;6.850;2023-07-20T05:21:01;82224.34;;;15.94;56.44
64711;BME280;51139;45.626;6.850;2023-07-20T05:23:27;82219.50;;;16.61;54.02
64711;BME280;51139;45.626;6.850;2023-07-20T05:25:56;82234.13;;;16.72;52.01
64711;BME280;51139;45.626;6.850;2023-07-20T05:28:23;82222.50;;;16.68;52.20
64711;BME280;51139;45.626;6.850;2023-07-20T05:30:50;82226.22;;;16.98;52.10
64711;BME280;51139;45.626;6.850;2023-07-20T05:33:16;82223.78;;;17.02;49.54
64711;BME280;51139;45.626;6.850;2023-07-20T05:35:43;82219.34;;;16.83;50.34
64711;BME280;51139;45.626;6.850;2023-07-20T05:38:08;82220.38;;;17.52;48.49
64711;BME280;51139;45.626;6.850;2023-07-20T05:40:37;82216.72;;;17.85;46.74
64711;BME280;51139;45.626;6.850;2023-07-20T05:43:02;82208.00;;;18.10;46.53
64711;BME280;51139;45.626;6.850;2023-07-20T05:45:28;82210.84;;;18.54;45.68
64711;BME280;51139;45.626;6.850;2023-07-20T05:47:53;82211.34;;;18.50;44.82
64711;BME280;51139;45.626;6.850;2023-07-20T05:50:19;82211.19;;;18.20;45.16
64711;BME280;51139;45.626;6.850;2023-07-20T05:52:44;82211.22;;;17.94;45.83
64711;BME280;51139;45.626;6.850;2023-07-20T05:55:09;82207.72;;;17.40;47.06
64711;BME280;51139;45.626;6.850;2023-07-20T05:57:35;82208.66;;;16.83;48.45
64711;BME280;51139;45.626;6.850;2023-07-20T06:00:01;82199.84;;;16.57;50.30
64711;BME280;51139;45.626;6.850;2023-07-20T06:02:26;82201.44;;;16.98;49.47
64711;BME280;51139;45.626;6.850;2023-07-20T06:04:51;82205.78;;;16.55;50.92
64711;BME280;51139;45.626;6.850;2023-07-20T06:07:17;82210.38;;;16.90;50.80
64711;BME280;51139;45.626;6.850;2023-07-20T06:09:42;82211.81;;;16.68;51.37
64711;BME280;51139;45.626;6.850;2023-07-20T06:12:08;82206.13;;;17.35;49.87
64711;BME280;51139;45.626;6.850;2023-07-20T06:14:34;82207.13;;;17.93;47.45
64711;BME280;51139;45.626;6.850;2023-07-20T06:16:59;82205.16;;;17.42;46.54
64711;BME280;51139;45.626;6.850;2023-07-20T06:19:24;82208.78;;;17.35;47.94
64711;BME280;51139;45.626;6.850;2023-07-20T06:21:50;82201.50;;;18.27;45.44
64711;BME280;51139;45.626;6.850;2023-07-20T06:24:16;82192.28;;;18.72;44.05
64711;BME280;51139;45.626;6.850;2023-07-20T06:26:42;82195.19;;;18.08;44.27
64711;BME280;51139;45.626;6.850;2023-07-20T06:29:08;82188.59;;;18.51;44.45
64711;BME280;51139;45.626;6.850;2023-07-20T06:31:37;82185.63;;;18.87;43.21
64711;BME280;51139;45.626;6.850;2023-07-20T06:34:03;82194.31;;;17.92;43.57
64711;BME280;51139;45.626;6.850;2023-07-20T06:36:28;82195.56;;;17.51;44.84
64711;BME280;51139;45.626;6.850;2023-07-20T06:38:55;82199.25;;;17.84;45.73
64711;BME280;51139;45.626;6.850;2023-07-20T06:41:20;82197.31;;;18.24;44.05
64711;BME280;51139;45.626;6.850;2023-07-20T06:43:47;82192.88;;;18.43;45.07
64711;BME280;51139;45.626;6.850;2023-07-20T06:46:12;82188.50;;;18.91;42.66
64711;BME280;51139;45.626;6.850;2023-07-20T06:48:38;82194.56;;;19.34;44.97
64711;BME280;51139;45.626;6.850;2023-07-20T06:51:03;82190.59;;;19.65;44.13
64711;BME280;51139;45.626;6.850;2023-07-20T06:53:30;82195.38;;;19.22;45.81
64711;BME280;51139;45.626;6.850;2023-07-20T06:55:55;82194.78;;;18.68;46.35
64711;BME280;51139;45.626;6.850;2023-07-20T06:58:24;82182.66;;;18.81;44.64
64711;BME280;51139;45.626;6.850;2023-07-20T07:00:49;82180.66;;;19.97;40.77
64711;BME280;51139;45.626;6.850;2023-07-20T07:03:15;82179.22;;;20.10;39.32
64711;BME280;51139;45.626;6.850;2023-07-20T07:05:40;82187.47;;;20.15;39.56
64711;BME280;51139;45.626;6.850;2023-07-20T07:08:05;82186.25;;;20.18;39.07
64711;BME280;51139;45.626;6.850;2023-07-20T07:10:31;82180.13;;;20.47;40.80
64711;BME280;51139;45.626;6.850;2023-07-20T07:12:57;82183.25;;;19.95;41.51
64711;BME280;51139;45.626;6.850;2023-07-20T07:15:22;82175.75;;;20.56;39.94
64711;BME280;51139;45.626;6.850;2023-07-20T07:17:48;82176.38;;;20.87;38.08
64711;BME280;51139;45.626;6.850;2023-07-20T07:20:13;82175.00;;;21.02;35.93
64711;BME280;51139;45.626;6.850;2023-07-20T07:22:38;82177.25;;;20.91;36.21
64711;BME280;51139;45.626;6.850;2023-07-20T07:25:04;82168.47;;;20.91;35.85
64711;BME280;51139;45.626;6.850;2023-07-20T07:27:29;82169.47;;;21.16;35.42
64711;BME280;51139;45.626;6.850;2023-07-20T07:29:55;82173.28;;;21.26;37.94
64711;BME280;51139;45.626;6.850;2023-07-20T07:32:20;82177.66;;;20.69;39.47
64711;BME280;51139;45.626;6.850;2023-07-20T07:34:46;82172.25;;;21.18;37.07
64711;BME280;51139;45.626;6.850;2023-07-20T07:37:13;82175.25;;;21.08;37.85
64711;BME280;51139;45.626;6.850;2023-07-20T07:39:38;82170.88;;;21.51;37.80
64711;BME280;51139;45.626;6.850;2023-07-20T07:42:04;82177.16;;;20.41;41.36
64711;BME280;51139;45.626;6.850;2023-07-20T07:44:29;82170.56;;;20.60;42.27
64711;BME280;51139;45.626;6.850;2023-07-20T07:46:55;82169.78;;;20.74;41.73
64711;BME280;51139;45.626;6.850;2023-07-20T07:49:20;82166.59;;;20.45;40.29
64711;BME280;51139;45.626;6.850;2023-07-20T07:51:45;82168.56;;;20.77;41.15
64711;BME280;51139;45.626;6.850;2023-07-20T07:54:11;82168.13;;;19.88;45.04
64711;BME280;51139;45.626;6.850;2023-07-20T07:56:36;82167.78;;;20.26;42.12
64711;BME280;51139;45.626;6.850;2023-07-20T07:59:02;82160.56;;;20.95;39.28
64711;BME280;51139;45.626;6.850;2023-07-20T08:01:28;82164.50;;;20.44;41.57
64711;BME280;51139;45.626;6.850;2023-07-20T08:03:53;82160.69;;;20.81;42.00
64711;BME280;51139;45.626;6.850;2023-07-20T08:06:19;82160.53;;;21.27;41.83
64711;BME280;51139;45.626;6.850;2023-07-20T08:08:44;82160.06;;;20.50;42.73
64711;BME280;51139;45.626;6.850;2023-07-20T08:11:09;82161.88;;;20.62;42.27
64711;BME280;51139;45.626;6.850;2023-07-20T08:13:35;82164.50;;;20.92;40.55
64711;BME280;51139;45.626;6.850;2023-07-20T08:16:00;82168.94;;;20.37;42.17
64711;BME280;51139;45.626;6.850;2023-07-20T08:18:27;82162.34;;;20.40;40.55
64711;BME280;51139;45.626;6.850;2023-07-20T08:20:53;82164.16;;;20.51;40.29
64711;BME280;51139;45.626;6.850;2023-07-20T08:23:18;82156.09;;;20.51;43.35
64711;BME280;51139;45.626;6.850;2023-07-20T08:25:43;82162.13;;;21.00;41.66
64711;BME280;51139;45.626;6.850;2023-07-20T08:28:14;82154.91;;;19.92;44.94
64711;BME280;51139;45.626;6.850;2023-07-20T08:30:48;82158.25;;;20.39;46.24
64711;BME280;51139;45.626;6.850;2023-07-20T08:33:14;82162.81;;;20.68;43.28
64711;BME280;51139;45.626;6.850;2023-07-20T08:35:40;82157.53;;;20.06;45.27
64711;BME280;51139;45.626;6.850;2023-07-20T08:38:06;82149.06;;;20.44;44.29
64711;BME280;51139;45.626;6.850;2023-07-20T08:40:33;82159.19;;;20.78;45.14
64711;BME280;51139;45.626;6.850;2023-07-20T08:42:59;82153.72;;;20.76;43.34
64711;BME280;51139;45.626;6.850;2023-07-20T08:45:28;82152.84;;;20.55;44.04
64711;BME280;51139;45.626;6.850;2023-07-20T08:47:58;82155.13;;;20.77;42.15
64711;BME280;51139;45.626;6.850;2023-07-20T08:50:25;82153.03;;;20.75;43.12
64711;BME280;51139;45.626;6.850;2023-07-20T08:52:52;82151.59;;;21.06;42.75
64711;BME280;51139;45.626;6.850;2023-07-20T08:55:20;82151.31;;;21.50;40.93
64711;BME280;51139;45.626;6.850;2023-07-20T08:57:46;82148.53;;;21.48;36.71
64711;BME280;51139;45.626;6.850;2023-07-20T09:00:13;82146.91;;;21.75;36.23
64711;BME280;51139;45.626;6.850;2023-07-20T09:02:41;82149.00;;;21.95;36.90
64711;BME280;51139;45.626;6.850;2023-07-20T09:05:09;82142.66;;;22.24;31.95
64711;BME280;51139;45.626;6.850;2023-07-20T09:07:35;82140.53;;;22.59;34.53
64711;BME280;51139;45.626;6.850;2023-07-20T09:10:01;82140.97;;;22.71;30.87
64711;BME280;51139;45.626;6.850;2023-07-20T09:12:52;82135.03;;;22.95;35.00
64711;BME280;51139;45.626;6.850;2023-07-20T09:15:16;82129.25;;;22.65;37.56
64711;BME280;51139;45.626;6.850;2023-07-20T09:17:49;82135.00;;;22.55;36.72
64711;BME280;51139;45.626;6.850;2023-07-20T09:20:18;82132.84;;;22.33;34.87
64711;BME280;51139;45.626;6.850;2023-07-20T09:22:44;82138.66;;;22.25;34.63
64711;BME280;51139;45.626;6.850;2023-07-20T09:25:17;82128.03;;;22.50;36.33
64711;BME280;51139;45.626;6.850;2023-07-20T09:27:44;82125.88;;;21.90;36.10
64711;BME280;51139;45.626;6.850;2023-07-20T09:30:11;82125.22;;;21.37;37.65
64711;BME280;51139;45.626;6.850;2023-07-20T09:32:42;82130.28;;;21.99;37.59
64711;BME280;51139;45.626;6.850;2023-07-20T09:35:20;82125.81;;;21.88;37.83
64711;BME280;51139;45.626;6.850;2023-07-20T09:37:50;82126.94;;;22.00;37.37
64711;BME280;51139;45.626;6.850;2023-07-20T09:40:19;82120.19;;;21.81;35.78
64711;BME280;51139;45.626;6.850;2023-07-20T09:42:46;82111.47;;;22.01;34.27
64711;BME280;51139;45.626;6.850;2023-07-20T09:45:11;82124.41;;;22.05;35.05
64711;BME280;51139;45.626;6.850;2023-07-20T09:47:37;82124.97;;;22.39;35.85
64711;BME280;51139;45.626;6.850;2023-07-20T09:50:04;82121.38;;;22.33;33.82
64711;BME280;51139;45.626;6.850;2023-07-20T09:52:33;82121.84;;;22.27;35.61
64711;BME280;51139;45.626;6.850;2023-07-20T09:55:00;82110.31;;;22.06;36.39
64711;BME280;51139;45.626;6.850;2023-07-20T09:57:26;82121.94;;;22.11;34.75
64711;BME280;51139;45.626;6.850;2023-07-20T09:59:51;82117.59;;;22.22;33.09
64711;BME280;51139;45.626;6.850;2023-07-20T10:02:21;82116.50;;;22.47;35.57
64711;BME280;51139;45.626;6.850;2023-07-20T10:04:52;82109.88;;;22.70;30.12
64711;BME280;51139;45.626;6.850;2023-07-20T10:07:19;82117.00;;;23.22;34.48
64711;BME280;51139;45.626;6.850;2023-07-20T10:09:48;82105.75;;;22.67;33.61
64711;BME280;51139;45.626;6.850;2023-07-20T10:12:15;82102.59;;;22.75;32.53
64711;BME280;51139;45.626;6.850;2023-07-20T10:14:44;82108.22;;;22.81;30.94
64711;BME280;51139;45.626;6.850;2023-07-20T10:17:15;82102.25;;;23.25;29.96
64711;BME280;51139;45.626;6.850;2023-07-20T10:19:48;82104.13;;;23.85;24.95
64711;BME280;51139;45.626;6.850;2023-07-20T10:22:19;82097.63;;;23.28;30.20
64711;BME280;51139;45.626;6.850;2023-07-20T10:24:46;82102.53;;;23.34;30.77
64711;BME280;51139;45.626;6.850;2023-07-20T10:27:12;82099.16;;;22.72;29.25
64711;BME280;51139;45.626;6.850;2023-07-20T10:29:39;82101.31;;;22.56;29.61
64711;BME280;51139;45.626;6.850;2023-07-20T10:32:05;82103.19;;;22.71;30.53
64711;BME280;51139;45.626;6.850;2023-07-20T10:34:31;82104.59;;;23.15;32.26
64711;BME280;51139;45.626;6.850;2023-07-20T10:36:57;82092.78;;;23.24;31.64
64711;BME280;51139;45.626;6.850;2023-07-20T10:39:24;82095.72;;;23.32;30.88
64711;BME280;51139;45.626;6.850;2023-07-20T10:41:50;82094.38;;;23.54;31.41
64711;BME280;51139;45.626;6.850;2023-07-20T10:44:20;82088.66;;;23.66;30.86
64711;BME280;51139;45.626;6.850;2023-07-20T10:46:46;82091.63;;;23.74;30.84
64711;BME280;51139;45.626;6.850;2023-07-20T10:49:14;82093.22;;;24.28;26.54
64711;BME280;51139;45.626;6.850;2023-07-20T10:51:41;82099.59;;;24.14;26.42
64711;BME280;51139;45.626;6.850;2023-07-20T10:56:52;82077.13;;;24.32;24.73
64711;BME280;51139;45.626;6.850;2023-07-20T10:59:36;82077.53;;;24.46;25.57
64711;BME280;51139;45.626;6.850;2023-07-20T11:02:07;82085.69;;;24.48;23.76
64711;BME280;51139;45.626;6.850;2023-07-20T11:04:44;82081.91;;;24.58;22.98
64711;BME280;51139;45.626;6.850;2023-07-20T11:07:10;82077.28;;;24.87;23.75
64711;BME280;51139;45.626;6.850;2023-07-20T11:09:39;82081.31;;;24.61;25.03
64711;BME280;51139;45.626;6.850;2023-07-20T11:12:17;82074.94;;;24.26;26.95
64711;BME280;51139;45.626;6.850;2023-07-20T11:14:56;82065.72;;;24.36;25.28
64711;BME280;51139;45.626;6.850;2023-07-20T11:17:29;82081.66;;;24.74;24.56
64711;BME280;51139;45.626;6.850;2023-07-20T11:19:55;82066.97;;;24.81;22.95
64711;BME280;51139;45.626;6.850;2023-07-20T11:22:21;82061.56;;;25.08;24.30
64711;BME280;51139;45.626;6.850;2023-07-20T11:24:47;82064.59;;;25.20;23.09
64711;BME280;51139;45.626;6.850;2023-07-20T11:27:14;82064.94;;;24.57;25.44
64711;BME280;51139;45.626;6.850;2023-07-20T11:29:40;82057.94;;;24.48;24.41
64711;BME280;51139;45.626;6.850;2023-07-20T11:32:05;82060.81;;;24.54;26.06
64711;BME280;51139;45.626;6.850;2023-07-20T11:34:31;82059.25;;;24.71;25.27
64711;BME280;51139;45.626;6.850;2023-07-20T11:36:57;82049.03;;;24.43;25.85
64711;BME280;51139;45.626;6.850;2023-07-20T11:39:23;82051.59;;;24.15;27.33
64711;BME280;51139;45.626;6.850;2023-07-20T11:41:55;82058.81;;;24.55;24.62
64711;BME280;51139;45.626;6.850;2023-07-20T11:44:22;82053.44;;;24.81;25.09
64711;BME280;51139;45.626;6.850;2023-07-20T11:47:12;82050.41;;;24.71;25.66
64711;BME280;51139;45.626;6.850;2023-07-20T11:49:39;82040.31;;;24.23;24.08
64711;BME280;51139;45.626;6.850;2023-07-20T11:52:10;82036.97;;;24.48;26.32
64711;BME280;51139;45.626;6.850;2023-07-20T11:54:39;82041.13;;;24.03;25.15
64711;BME280;51139;45.626;6.850;2023-07-20T11:57:05;82037.41;;;24.65;25.20
64711;BME280;51139;45.626;6.850;2023-07-20T11:59:32;82035.72;;;24.76;26.22
64711;BME280;51139;45.626;6.850;2023-07-20T12:02:03;82033.00;;;25.31;22.36
64711;BME280;51139;45.626;6.850;2023-07-20T12:04:31;82023.97;;;24.94;23.72
64711;BME280;51139;45.626;6.850;2023-07-20T12:06:56;82026.75;;;25.24;22.71
64711;BME280;51139;45.626;6.850;2023-07-20T12:09:22;82024.88;;;25.31;23.68
64711;BME280;51139;45.626;6.850;2023-07-20T12:11:49;82020.66;;;25.52;22.50
64711;BME280;51139;45.626;6.850;2023-07-20T12:14:15;82015.63;;;25.40;23.09
64711;BME280;51139;45.626;6.850;2023-07-20T12:16:41;82020.28;;;25.09;23.56
64711;BME280;51139;45.626;6.850;2023-07-20T12:19:13;82005.47;;;25.41;24.24
64711;BME280;51139;45.626;6.850;2023-07-20T12:21:41;82014.38;;;26.04;24.59
64711;BME280;51139;45.626;6.850;2023-07-20T12:24:10;82018.66;;;25.83;24.33
64711;BME280;51139;45.626;6.850;2023-07-20T12:26:36;82015.75;;;25.75;21.98
64711;BME280;51139;45.626;6.850;2023-07-20T12:29:02;82005.28;;;24.77;20.67
64711;BME280;51139;45.626;6.850;2023-07-20T12:31:29;82008.25;;;24.37;22.87
64711;BME280;51139;45.626;6.850;2023-07-20T12:33:57;82008.16;;;24.59;24.41
64711;BME280;51139;45.626;6.850;2023-07-20T12:36:24;82012.63;;;25.01;24.14
64711;BME280;51139;45.626;6.850;2023-07-20T12:38:50;82008.03;;;24.80;24.86
64711;BME280;51139;45.626;6.850;2023-07-20T12:41:15;82005.50;;;24.35;24.54
64711;BME280;51139;45.626;6.850;2023-07-20T12:43:41;82005.63;;;24.92;24.33
64711;BME280;51139;45.626;6.850;2023-07-20T12:46:08;82002.19;;;24.39;25.23
64711;BME280;51139;45.626;6.850;2023-07-20T12:48:36;82005.22;;;25.02;25.67
64711;BME280;51139;45.626;6.850;2023-07-20T12:51:05;82004.47;;;25.28;23.75
64711;BME280;51139;45.626;6.850;2023-07-20T12:53:31;81996.88;;;24.67;25.77
64711;BME280;51139;45.626;6.850;2023-07-20T12:55:57;82001.38;;;24.58;25.15
64711;BME280;51139;45.626;6.850;2023-07-20T12:58:23;81995.44;;;24.64;24.75
64711;BME280;51139;45.626;6.850;2023-07-20T13:00:49;81991.91;;;24.59;25.23
64711;BME280;51139;45.626;6.850;2023-07-20T13:03:14;81988.19;;;24.73;24.57
64711;BME280;51139;45.626;6.850;2023-07-20T13:05:41;82003.47;;;24.86;24.11
64711;BME280;51139;45.626;6.850;2023-07-20T13:08:06;82005.91;;;25.31;23.64